createdAt,value
2023-02-24T00:00:32.032Z,99591.50
2023-02-24T00:03:05.825Z,99656.53
2023-02-24T00:05:39.251Z,99660.03
2023-02-24T00:08:07.274Z,99608.84
2023-02-24T00:10:37.465Z,99654.88
2023-02-24T00:13:06.345Z,99645.31
2023-02-24T00:15:34.097Z,99655.75
2023-02-24T00:18:06.992Z,99656.66
2023-02-24T00:20:34.864Z,99653.19
2023-02-24T00:23:03.998Z,99651.47
2023-02-24T00:25:31.691Z,99642.78
2023-02-24T00:28:03.541Z,99627.16
2023-02-24T00:30:32.863Z,99645.41
2023-02-24T00:33:02.435Z,99625.47
2023-02-24T00:35:30.355Z,99620.25
2023-02-24T00:37:58.128Z,99632.41
2023-02-24T00:40:30.204Z,99628.06
2023-02-24T00:42:58.124Z,99611.66
2023-02-24T00:45:25.804Z,99624.56
2023-02-24T00:47:57.581Z,99618.47
2023-02-24T00:50:25.461Z,99602.00
2023-02-24T00:52:53.200Z,99616.69
2023-02-24T00:55:23.369Z,99609.75
2023-02-24T00:57:52.582Z,99617.59
2023-02-24T01:00:23.334Z,99567.22
2023-02-24T01:02:51.242Z,99595.81
2023-02-24T01:05:19.857Z,99587.97
2023-02-24T01:07:47.675Z,99561.06
2023-02-24T01:10:18.223Z,99539.34
2023-02-24T01:12:50.909Z,99581.91
2023-02-24T01:15:20.784Z,99578.44
2023-02-24T01:17:49.784Z,99574.13
2023-02-24T01:20:18.418Z,99576.75
2023-02-24T01:22:51.172Z,99562.00
2023-02-24T01:25:20.305Z,99581.13
2023-02-24T01:27:48.556Z,99581.09
2023-02-24T01:30:16.766Z,99581.13
2023-02-24T01:32:47.234Z,99549.00
2023-02-24T01:35:15.692Z,99587.19
2023-02-24T01:37:45.185Z,99579.38
2023-02-24T01:40:18.595Z,99586.38
2023-02-24T01:42:49.336Z,99573.31
2023-02-24T01:45:21.269Z,99514.38
2023-02-24T01:47:50.449Z,99558.59
2023-02-24T01:50:21.575Z,99566.44
2023-02-24T01:52:49.544Z,99562.97
2023-02-24T01:55:20.898Z,99525.63
2023-02-24T01:57:48.774Z,99549.94
2023-02-24T02:00:33.076Z,99545.59
2023-02-24T02:03:05.093Z,99542.09
2023-02-24T02:05:32.990Z,99537.75
2023-02-24T02:08:00.812Z,99482.25
2023-02-24T02:10:29.643Z,99530.88
2023-02-24T02:12:57.386Z,99538.69
2023-02-24T02:15:25.300Z,99548.28
2023-02-24T02:17:58.439Z,99480.66
2023-02-24T02:21:01.715Z,99532.59
2023-02-24T02:24:04.363Z,99536.94
2023-02-24T02:27:02.627Z,99529.97
2023-02-24T02:29:56.318Z,99519.56
2023-02-24T02:32:52.578Z,99522.19
2023-02-24T02:35:22.636Z,99511.72
2023-02-24T02:37:53.474Z,99511.75
2023-02-24T02:40:24.576Z,99506.53
2023-02-24T02:42:55.382Z,99477.97
2023-02-24T02:45:25.191Z,99493.50
2023-02-24T02:47:54.893Z,99437.16
2023-02-24T02:50:26.997Z,99495.28
2023-02-24T02:52:57.018Z,99366.97
2023-02-24T02:55:27.729Z,99455.47
2023-02-24T02:57:56.097Z,99443.19
2023-02-24T03:00:24.904Z,99468.34
2023-02-24T03:02:55.211Z,99465.75
2023-02-24T03:05:29.761Z,99460.56
2023-02-24T03:07:58.602Z,99458.84
2023-02-24T03:10:28.596Z,99426.81
2023-02-24T03:12:58.193Z,99452.81
2023-02-24T03:15:27.511Z,99449.38
2023-02-24T03:17:56.882Z,99446.78
2023-02-24T03:20:29.357Z,99429.50
2023-02-24T03:23:00.306Z,99451.16
2023-02-24T03:25:33.905Z,99377.50
2023-02-24T03:28:03.880Z,99449.44
2023-02-24T03:30:35.590Z,99436.44
2023-02-24T03:33:06.487Z,99418.34
2023-02-24T03:35:38.823Z,99396.59
2023-02-24T03:38:06.625Z,99378.38
2023-02-24T03:40:36.053Z,99439.03
2023-02-24T03:43:07.608Z,99429.59
2023-02-24T03:45:39.055Z,99394.84
2023-02-24T03:48:07.256Z,99424.34
2023-02-24T03:50:38.031Z,99410.50
2023-02-24T03:53:13.914Z,99436.50
2023-02-24T03:55:47.085Z,99433.00
2023-02-24T03:58:18.270Z,99432.16
2023-02-24T04:00:49.676Z,99426.97
2023-02-24T04:03:26.576Z,99429.59
2023-02-24T04:06:01.762Z,99431.34
2023-02-24T04:08:31.192Z,99423.50
2023-02-24T04:11:00.300Z,99398.41
2023-02-24T04:13:35.326Z,99440.91
2023-02-24T04:16:05.213Z,99366.28
2023-02-24T04:18:33.100Z,99444.34
2023-02-24T04:21:03.582Z,99426.13
2023-02-24T04:23:32.995Z,99425.28
2023-02-24T04:26:00.876Z,99352.41
2023-02-24T04:28:28.711Z,99358.44
2023-02-24T04:30:57.801Z,99411.31
2023-02-24T04:33:27.706Z,99406.97
2023-02-24T04:35:55.390Z,99405.25
2023-02-24T04:38:24.981Z,99407.84
2023-02-24T04:40:52.904Z,99395.69
2023-02-24T04:43:20.834Z,99402.63
2023-02-24T04:45:48.540Z,99364.47
2023-02-24T04:48:16.209Z,99391.31
2023-02-24T04:50:44.623Z,99396.53
2023-02-24T04:53:13.425Z,99381.78
2023-02-24T04:55:48.633Z,99396.50
2023-02-24T04:58:19.169Z,99389.53
2023-02-24T05:00:48.840Z,99367.88
2023-02-24T05:03:16.978Z,99289.00
2023-02-24T05:05:51.979Z,99383.47
2023-02-24T05:08:19.960Z,99378.25
2023-02-24T05:10:49.187Z,99375.63
2023-02-24T05:13:17.828Z,99372.16
2023-02-24T05:15:46.189Z,99341.03
2023-02-24T05:18:17.068Z,99280.31
2023-02-24T05:21:03.662Z,99377.38
2023-02-24T05:23:33.848Z,99358.28
2023-02-24T05:26:08.534Z,99357.41
2023-02-24T05:28:37.845Z,99358.28
2023-02-24T05:31:15.045Z,99334.97
2023-02-24T05:33:43.527Z,99192.84
2023-02-24T05:36:18.005Z,99356.59
2023-02-24T05:38:46.301Z,99369.63
2023-02-24T05:41:17.602Z,99282.09
2023-02-24T05:43:48.144Z,99305.50
2023-02-24T05:46:20.442Z,99345.34
2023-02-24T05:48:51.715Z,99347.09
2023-02-24T05:51:19.894Z,99339.25
2023-02-24T05:56:39.439Z,99334.91
2023-02-24T05:59:10.699Z,99329.72
2023-02-24T06:01:41.318Z,99269.06
2023-02-24T06:04:20.706Z,99313.22
2023-02-24T06:06:52.396Z,99300.25
2023-02-24T06:09:23.106Z,99319.25
2023-02-24T06:11:52.209Z,99321.00
2023-02-24T06:14:21.407Z,99316.63
2023-02-24T06:16:49.426Z,99307.06
2023-02-24T06:19:17.690Z,99295.78
2023-02-24T06:21:45.888Z,99302.72
2023-02-24T06:24:15.116Z,99296.63
2023-02-24T06:26:44.165Z,99296.63
2023-02-24T06:29:15.279Z,99294.03
2023-02-24T06:31:43.815Z,99283.59
2023-02-24T06:34:13.105Z,99281.00
2023-02-24T06:36:41.096Z,99294.88
2023-02-24T06:39:13.823Z,99294.00
2023-02-24T06:41:42.522Z,99303.53
2023-02-24T06:44:10.453Z,99306.16
2023-02-24T06:46:39.525Z,99300.06
2023-02-24T06:49:07.498Z,99302.63
2023-02-24T06:51:35.553Z,99287.88
2023-02-24T06:54:03.549Z,99281.78
2023-02-24T06:56:34.754Z,99279.16
2023-02-24T06:59:04.553Z,99286.09
2023-02-24T07:01:34.626Z,99275.69
2023-02-24T07:04:17.663Z,99282.59
2023-02-24T07:06:47.792Z,99286.09
2023-02-24T07:09:16.708Z,99286.09
2023-02-24T07:11:46.902Z,99283.47
2023-02-24T07:14:15.015Z,99292.16
2023-02-24T07:16:45.493Z,99280.84
2023-02-24T07:19:16.464Z,99236.66
2023-02-24T07:21:49.855Z,99275.66
2023-02-24T07:24:24.931Z,99272.19
2023-02-24T07:26:57.189Z,99267.84
2023-02-24T07:29:25.298Z,99272.19
2023-02-24T07:31:54.992Z,99271.28
2023-02-24T07:34:24.652Z,99259.13
2023-02-24T07:36:53.135Z,99259.13
2023-02-24T07:39:22.908Z,99255.66
2023-02-24T07:41:51.322Z,99248.66
2023-02-24T07:44:19.753Z,99176.84
2023-02-24T07:46:49.038Z,99239.94
2023-02-24T07:49:19.827Z,99194.09
2023-02-24T07:51:52.624Z,99238.19
2023-02-24T07:54:21.095Z,99232.06
2023-02-24T07:56:56.727Z,99225.13
2023-02-24T07:59:25.150Z,99140.31
2023-02-24T08:01:55.858Z,99220.75
2023-02-24T08:04:25.387Z,99218.09
2023-02-24T08:07:02.500Z,99218.97
2023-02-24T08:10:03.844Z,99214.59
2023-02-24T08:12:35.063Z,99200.66
2023-02-24T08:15:08.818Z,99203.28
2023-02-24T08:17:36.566Z,99198.91
2023-02-24T08:20:18.438Z,99198.06
2023-02-24T08:22:47.768Z,99191.91
2023-02-24T08:25:18.873Z,99192.78
2023-02-24T08:28:05.123Z,99188.44
2023-02-24T08:30:38.688Z,99189.28
2023-02-24T08:33:07.078Z,99122.56
2023-02-24T08:35:36.422Z,99175.28
2023-02-24T08:38:07.704Z,99168.38
2023-02-24T08:40:39.565Z,99165.72
2023-02-24T08:43:17.138Z,99161.38
2023-02-24T08:45:45.503Z,99200.53
2023-02-24T08:48:26.176Z,99153.53
2023-02-24T08:50:55.530Z,99135.47
2023-02-24T08:53:29.651Z,99142.47
2023-02-24T08:55:57.495Z,99160.53
2023-02-24T08:58:27.093Z,99146.59
2023-02-24T09:00:56.840Z,99145.72
2023-02-24T09:03:33.702Z,99142.22
2023-02-24T09:06:05.627Z,99129.22
2023-02-24T09:08:34.797Z,99107.66
2023-02-24T09:11:07.767Z,98952.19
2023-02-24T09:13:36.869Z,99171.56
2023-02-24T09:16:05.536Z,99138.41
2023-02-24T09:18:38.353Z,99131.47
2023-02-24T09:21:28.218Z,99080.41
2023-02-24T09:23:57.298Z,99119.25
2023-02-24T09:26:25.101Z,99119.19
2023-02-24T09:28:56.655Z,99111.38
2023-02-24T09:31:40.412Z,99108.69
2023-02-24T09:34:10.417Z,99106.91
2023-02-24T09:36:44.958Z,99093.84
2023-02-24T09:39:15.502Z,99093.03
2023-02-24T09:41:57.542Z,99103.31
2023-02-24T09:44:33.259Z,99102.41
2023-02-24T09:47:08.886Z,99092.78
2023-02-24T09:49:46.695Z,99089.34
2023-02-24T09:52:17.430Z,99087.63
2023-02-24T09:55:15.535Z,99081.63
2023-02-24T10:00:59.879Z,99084.38
2023-02-24T10:03:42.739Z,99050.72
2023-02-24T10:06:16.223Z,99073.88
2023-02-24T10:08:45.612Z,99077.34
2023-02-24T10:11:15.799Z,99073.88
2023-02-24T10:13:46.413Z,99066.09
2023-02-24T10:16:16.874Z,99068.63
2023-02-24T10:18:46.836Z,99058.97
2023-02-24T10:21:21.058Z,99058.13
2023-02-24T10:23:56.697Z,99063.38
2023-02-24T10:26:31.938Z,99048.53
2023-02-24T10:29:09.110Z,99037.25
2023-02-24T10:31:41.315Z,99039.03
2023-02-24T10:34:10.495Z,99034.75
2023-02-24T10:36:39.199Z,99019.28
2023-02-24T10:39:10.938Z,99036.47
2023-02-24T10:41:47.572Z,99028.66
2023-02-24T10:44:24.056Z,99027.84
2023-02-24T10:47:11.374Z,99027.81
2023-02-24T10:49:50.814Z,99025.28
2023-02-24T10:52:37.696Z,99022.72
2023-02-24T10:55:24.576Z,98990.06
2023-02-24T10:58:05.915Z,99008.22
2023-02-24T11:01:01.092Z,99020.41
2023-02-24T11:03:41.878Z,98968.53
2023-02-24T11:06:30.661Z,99001.25
2023-02-24T11:09:19.080Z,99002.13
2023-02-24T11:12:04.889Z,99006.50
2023-02-24T11:14:51.901Z,98988.31
2023-02-24T11:17:23.396Z,98965.97
2023-02-24T11:19:55.852Z,98903.66
2023-02-24T11:22:26.244Z,98979.69
2023-02-24T11:24:53.961Z,98970.13
2023-02-24T11:27:23.469Z,98970.13
2023-02-24T11:30:06.314Z,98959.69
2023-02-24T11:32:45.565Z,98940.84
2023-02-24T11:35:16.108Z,98953.69
2023-02-24T11:37:45.301Z,98947.72
2023-02-24T11:40:16.242Z,98945.09
2023-02-24T11:42:46.187Z,98936.41
2023-02-24T11:45:22.697Z,98889.88
2023-02-24T11:47:53.192Z,98866.44
2023-02-24T11:50:30.736Z,98921.63
2023-02-24T11:52:59.316Z,98920.81
2023-02-24T11:55:34.375Z,98916.41
2023-02-24T11:58:02.069Z,98911.16
2023-02-24T12:00:33.761Z,98849.03
2023-02-24T12:03:04.567Z,98802.34
2023-02-24T12:05:36.969Z,98890.28
2023-02-24T12:08:06.781Z,98896.38
2023-02-24T12:10:36.240Z,98891.16
2023-02-24T12:13:06.777Z,98885.94
2023-02-24T12:15:40.274Z,98890.41
2023-02-24T12:18:13.970Z,98877.34
2023-02-24T12:20:44.024Z,98871.34
2023-02-24T12:23:18.015Z,98864.31
2023-02-24T12:25:58.910Z,98862.59
2023-02-24T12:28:34.074Z,98870.38
2023-02-24T12:31:08.945Z,98842.03
2023-02-24T12:38:53.069Z,98798.13
2023-02-24T12:41:32.217Z,98844.75
2023-02-24T12:44:03.374Z,98864.50
2023-02-24T12:46:34.526Z,98764.44
2023-02-24T12:49:12.931Z,98851.44
2023-02-24T12:51:43.524Z,98847.59
2023-02-24T12:54:15.654Z,98780.66
2023-02-24T12:56:48.604Z,98858.38
2023-02-24T12:59:18.597Z,98829.63
2023-02-24T13:01:55.236Z,98823.59
2023-02-24T13:04:38.400Z,98769.22
2023-02-24T13:07:10.936Z,98816.75
2023-02-24T13:09:42.475Z,98802.09
2023-02-24T13:12:14.516Z,98803.75
2023-02-24T13:14:42.217Z,98782.13
2023-02-24T13:17:20.402Z,98783.78
2023-02-24T13:19:49.824Z,98671.81
2023-02-24T13:22:28.779Z,98772.47
2023-02-24T13:25:02.780Z,98773.53
2023-02-24T13:27:31.105Z,98778.56
2023-02-24T13:30:00.846Z,98655.41
2023-02-24T13:32:32.621Z,98778.63
2023-02-24T13:35:04.237Z,98785.63
2023-02-24T13:37:34.464Z,98783.09
2023-02-24T13:40:02.339Z,98774.44
2023-02-24T13:42:30.812Z,98771.88
2023-02-24T13:45:04.475Z,98705.59
2023-02-24T13:48:04.646Z,98752.91
2023-02-24T13:50:33.552Z,98759.81
2023-02-24T13:53:14.421Z,98731.38
2023-02-24T13:55:50.316Z,98740.75
2023-02-24T13:58:38.226Z,98745.84
2023-02-24T14:01:09.742Z,98732.88
2023-02-24T14:03:40.562Z,98724.22
2023-02-24T14:06:08.557Z,98726.84
2023-02-24T14:08:42.493Z,98735.41
2023-02-24T14:11:11.899Z,98660.50
2023-02-24T14:13:40.052Z,98721.53
2023-02-24T14:16:18.991Z,98674.34
2023-02-24T14:18:54.792Z,98704.31
2023-02-24T14:21:48.193Z,98580.38
2023-02-24T14:24:20.644Z,98717.19
2023-02-24T14:26:49.446Z,98637.97
2023-02-24T14:29:20.235Z,98711.19
2023-02-24T14:31:49.885Z,98696.50
2023-02-24T14:34:23.136Z,98672.50
2023-02-24T14:36:56.836Z,98693.97
2023-02-24T14:39:26.666Z,98611.28
2023-02-24T14:42:05.789Z,98639.75
2023-02-24T14:44:42.580Z,98699.13
2023-02-24T14:47:11.193Z,98693.06
2023-02-24T14:49:42.394Z,98648.31
2023-02-24T14:52:11.860Z,98690.47
2023-02-24T14:54:44.726Z,98695.63
2023-02-24T14:57:14.383Z,98686.16
2023-02-24T14:59:43.115Z,98685.19
2023-02-24T15:02:14.940Z,98681.31
2023-02-24T15:04:44.964Z,98684.19
2023-02-24T15:07:18.422Z,98370.97
2023-02-24T15:09:46.849Z,98584.47
2023-02-24T15:12:23.188Z,98661.25
2023-02-24T15:14:54.912Z,98771.81
2023-02-24T15:17:26.200Z,98644.31
2023-02-24T15:19:55.692Z,98779.66
2023-02-24T15:22:25.853Z,98572.28
2023-02-24T15:24:55.875Z,98412.00
2023-02-24T15:27:28.386Z,98676.41
2023-02-24T15:30:02.126Z,98444.63
2023-02-24T15:32:31.879Z,98534.53
2023-02-24T15:35:04.441Z,98402.38
2023-02-24T15:37:37.268Z,98634.56
2023-02-24T15:40:07.790Z,98652.81
2023-02-24T15:42:36.163Z,98632.72
2023-02-24T15:45:05.513Z,98628.41
2023-02-24T15:47:43.604Z,98557.88
2023-02-24T15:50:13.382Z,98625.72
2023-02-24T15:52:43.278Z,98524.84
2023-02-24T15:55:12.183Z,98610.00
2023-02-24T15:57:40.066Z,98613.72
2023-02-24T16:00:13.610Z,98600.31
2023-02-24T16:02:41.721Z,98487.75
2023-02-24T16:05:13.247Z,98600.19
2023-02-24T16:07:41.144Z,98588.00
2023-02-24T16:10:17.452Z,98493.44
2023-02-24T16:12:47.603Z,98523.00
2023-02-24T16:15:18.666Z,98468.53
2023-02-24T16:17:47.228Z,98469.53
2023-02-24T16:20:18.103Z,98535.72
2023-02-24T16:22:46.187Z,98595.75
2023-02-24T16:25:16.391Z,98593.25
2023-02-24T16:27:44.439Z,98701.78
2023-02-24T16:30:21.440Z,98503.69
2023-02-24T16:32:50.659Z,98556.16
2023-02-24T16:35:20.044Z,98459.00
2023-02-24T16:37:48.217Z,98450.91
2023-02-24T16:40:25.260Z,98598.00
2023-02-24T16:42:53.385Z,98553.06
2023-02-24T16:45:21.317Z,98575.47
2023-02-24T16:47:49.829Z,98623.53
2023-02-24T16:50:24.231Z,98618.28
2023-02-24T16:52:53.722Z,98309.81
2023-02-24T16:55:21.548Z,98342.38
2023-02-24T16:57:49.644Z,98552.84
2023-02-24T17:00:17.829Z,98607.75
2023-02-24T17:02:52.712Z,98608.63
2023-02-24T17:05:23.026Z,98390.75
2023-02-24T17:07:51.361Z,98558.84
2023-02-24T17:10:20.810Z,98613.88
2023-02-24T17:12:48.644Z,98623.34
2023-02-24T17:15:17.586Z,98521.69
2023-02-24T17:17:48.159Z,98561.22
2023-02-24T17:20:16.770Z,98551.63
2023-02-24T17:22:47.007Z,98636.34
2023-02-24T17:25:15.618Z,98541.41
2023-02-24T17:27:43.847Z,98606.59
2023-02-24T17:30:13.638Z,98620.47
2023-02-24T17:32:44.584Z,98600.47
2023-02-24T17:35:14.850Z,98598.69
2023-02-24T17:37:42.633Z,98610.81
2023-02-24T17:40:13.630Z,98580.09
2023-02-24T17:42:41.699Z,98566.16
2023-02-24T17:45:11.089Z,98534.47
2023-02-24T17:47:40.075Z,98592.09
2023-02-24T17:50:12.664Z,98580.28
2023-02-24T17:52:41.321Z,98651.84
2023-02-24T17:55:11.694Z,98512.09
2023-02-24T17:57:40.700Z,98182.53
2023-02-24T18:00:09.293Z,98537.72
2023-02-24T18:02:37.205Z,98597.34
2023-02-24T18:05:05.510Z,98634.94
2023-02-24T18:07:33.293Z,98545.56
2023-02-24T18:10:09.933Z,98630.56
2023-02-24T18:12:39.878Z,98530.25
2023-02-24T18:15:09.618Z,98641.06
2023-02-24T18:17:37.913Z,98558.13
2023-02-24T18:20:06.574Z,98589.97
2023-02-24T18:22:34.352Z,98621.81
2023-02-24T18:25:02.245Z,98411.31
2023-02-24T18:27:30.286Z,98620.03
2023-02-24T18:29:59.785Z,98567.56
2023-02-24T18:32:27.928Z,98524.78
2023-02-24T18:34:55.832Z,98613.06
2023-02-24T18:37:23.481Z,98613.06
2023-02-24T18:39:53.257Z,98609.66
2023-02-24T18:42:21.002Z,98615.69
2023-02-24T18:44:48.773Z,98618.31
2023-02-24T18:47:17.898Z,98629.63
2023-02-24T18:49:45.647Z,98650.53
2023-02-24T18:52:13.360Z,98663.75
2023-02-24T18:54:46.684Z,98659.50
2023-02-24T18:57:14.558Z,98640.69
2023-02-24T18:59:42.249Z,98656.16
2023-02-24T19:02:11.709Z,98634.94
2023-02-24T19:04:40.830Z,98655.38
2023-02-24T19:07:08.657Z,98652.81
2023-02-24T19:09:36.413Z,98652.75
2023-02-24T19:12:04.360Z,98656.25
2023-02-24T19:14:32.255Z,98659.75
2023-02-24T19:17:05.076Z,98668.53
2023-02-24T19:19:32.830Z,98667.59
2023-02-24T19:22:01.853Z,98665.06
2023-02-24T19:24:30.428Z,98664.25
2023-02-24T19:26:58.102Z,98667.75
2023-02-24T19:29:27.954Z,98678.19
2023-02-24T19:31:57.719Z,98670.34
2023-02-24T19:34:25.488Z,98666.84
2023-02-24T19:36:53.184Z,98671.16
2023-02-24T19:39:25.346Z,98679.00
2023-02-24T19:41:53.245Z,98685.09
2023-02-24T19:44:20.910Z,98689.50
2023-02-24T19:46:49.670Z,98654.09
2023-02-24T19:49:17.319Z,98680.94
2023-02-24T19:51:47.171Z,98693.13
2023-02-24T19:54:16.146Z,98669.97
2023-02-24T19:56:45.186Z,98694.03
2023-02-24T19:59:12.865Z,98699.22
2023-02-24T20:01:40.591Z,98689.72
2023-02-24T20:04:08.507Z,98696.72
2023-02-24T20:06:36.938Z,98691.72
2023-02-24T20:09:05.994Z,98695.81
2023-02-24T20:11:35.608Z,98692.44
2023-02-24T20:14:04.687Z,98701.94
2023-02-24T20:16:34.711Z,98696.72
2023-02-24T20:19:02.620Z,98699.38
2023-02-24T20:21:30.528Z,98704.47
2023-02-24T20:23:59.927Z,98699.25
2023-02-24T20:26:28.401Z,98655.50
2023-02-24T20:28:56.666Z,98704.47
2023-02-24T20:31:25.669Z,98698.50
2023-02-24T20:33:53.625Z,98707.09
2023-02-24T20:36:22.592Z,98691.63
2023-02-24T20:38:50.569Z,98711.47
2023-02-24T20:41:18.593Z,98714.06
2023-02-24T20:43:46.263Z,98708.91
2023-02-24T20:46:14.085Z,98710.66
2023-02-24T20:48:43.226Z,98710.66
2023-02-24T20:51:17.418Z,98725.50
2023-02-24T20:53:56.587Z,98722.88
2023-02-24T20:56:25.514Z,98719.41
2023-02-24T20:58:54.171Z,98704.88
2023-02-24T21:01:21.908Z,98717.72
2023-02-24T21:03:51.488Z,98723.88
2023-02-24T21:06:19.254Z,98717.03
2023-02-24T21:08:46.967Z,98728.34
2023-02-24T21:11:15.229Z,98731.84
2023-02-24T21:13:43.218Z,98694.03
2023-02-24T21:16:11.388Z,98730.34
2023-02-24T21:18:39.289Z,98731.38
2023-02-24T21:21:08.883Z,98732.41
2023-02-24T21:23:36.843Z,98734.25
2023-02-24T21:26:04.577Z,98707.53
2023-02-24T21:28:32.304Z,98735.19
2023-02-24T21:31:00.210Z,98729.97
2023-02-24T21:33:28.022Z,98735.13
2023-02-24T21:35:59.041Z,98721.44
2023-02-24T21:38:28.328Z,98738.63
2023-02-24T21:40:55.982Z,98739.50
2023-02-24T21:43:24.289Z,98741.34
2023-02-24T21:45:51.969Z,98742.22
2023-02-24T21:48:19.959Z,98737.06
2023-02-24T21:50:47.629Z,98726.63
2023-02-24T21:53:15.308Z,98743.09
2023-02-24T21:55:44.548Z,98754.34
2023-02-24T21:58:13.215Z,98751.69
2023-02-24T22:00:42.366Z,98761.19
2023-02-24T22:03:10.096Z,98753.38
2023-02-24T22:05:37.768Z,98762.06
2023-02-24T22:08:05.444Z,98753.38
2023-02-24T22:10:33.084Z,98748.97
2023-02-24T22:13:02.121Z,98750.75
2023-02-24T22:15:29.775Z,98758.50
2023-02-24T22:17:57.439Z,98761.06
2023-02-24T22:20:25.105Z,98756.69
2023-02-24T22:22:52.774Z,98751.47
2023-02-24T22:25:20.495Z,98747.09
2023-02-24T22:27:48.177Z,98745.38
2023-02-24T22:30:17.662Z,98751.41
2023-02-24T22:32:45.331Z,98747.94
2023-02-24T22:35:13.057Z,98755.72
2023-02-24T22:37:40.752Z,98750.50
2023-02-24T22:40:09.364Z,98749.63
2023-02-24T22:42:37.088Z,98719.56
2023-02-24T22:45:07.114Z,98736.84
2023-02-24T22:47:36.195Z,98741.94
2023-02-24T22:50:03.932Z,98741.19
2023-02-24T22:52:32.444Z,98745.44
2023-02-24T22:55:00.567Z,98754.97
2023-02-24T22:57:30.427Z,98740.41
2023-02-24T22:59:58.105Z,98762.88
2023-02-24T23:02:26.682Z,98765.44
2023-02-24T23:04:57.227Z,98768.16
2023-02-24T23:07:24.977Z,98769.06
2023-02-24T23:09:53.367Z,98776.94
2023-02-24T23:12:22.205Z,98782.22
2023-02-24T23:14:50.116Z,98784.03
2023-02-24T23:17:17.783Z,98787.56
2023-02-24T23:19:45.437Z,98783.31
2023-02-24T23:22:15.227Z,98790.28
2023-02-24T23:24:43.026Z,98803.28
2023-02-24T23:27:11.604Z,98799.88
2023-02-24T23:29:39.287Z,98810.19
2023-02-24T23:32:07.225Z,98805.84
2023-02-24T23:34:35.000Z,98801.47
2023-02-24T23:37:02.683Z,98811.00
2023-02-24T23:39:31.734Z,98805.81
2023-02-24T23:41:59.490Z,98813.56
2023-02-24T23:44:27.298Z,98816.16
2023-02-24T23:46:58.048Z,98824.81
2023-02-24T23:49:31.147Z,98797.16
2023-02-24T23:52:04.053Z,98823.03
2023-02-24T23:54:33.164Z,98809.13
2023-02-24T23:57:01.026Z,98815.22
2023-02-24T23:59:28.716Z,98804.81
